sensor_id;sensor_type;location;lat;lon;timestamp;P1;durP1;ratioP1;P2;durP2;ratioP2
55021;SDS011;68328;35.990;-86.756;2023-11-22T00:00:35;19;;;18;;
55021;SDS011;68328;35.990;-86.756;2023-11-22T00:03:00;14;;;14;;
55021;SDS011;68328;35.990;-86.756;2023-11-22T00:05:26;14;;;13;;
55021;SDS011;68328;35.990;-86.756;2023-11-22T00:07:52;10;;;10;;
55021;SDS011;68328;35.990;-86.756;2023-11-22T00:10:16;13;;;13;;
55021;SDS011;68328;35.990;-86.756;2023-11-22T00:12:41;9;;;9;;
55021;SDS011;68328;35.990;-86.756;2023-11-22T00:15:07;13;;;12;;
55021;SDS011;68328;35.990;-86.756;2023-11-22T00:17:33;12;;;12;;
55021;SDS011;68328;35.990;-86.756;2023-11-22T00:19:58;8;;;8;;
55021;SDS011;68328;35.990;-86.756;2023-11-22T00:22:24;12;;;11;;
55021;SDS011;68328;35.990;-86.756;2023-11-22T00:24:49;12;;;12;;
55021;SDS011;68328;35.990;-86.756;2023-11-22T00:27:15;12;;;12;;
55021;SDS011;68328;35.990;-86.756;2023-11-22T00:29:39;13;;;13;;
55021;SDS011;68328;35.990;-86.756;2023-11-22T00:32:07;8;;;8;;
55021;SDS011;68328;35.990;-86.756;2023-11-22T00:34:31;8;;;8;;
55021;SDS011;68328;35.990;-86.756;2023-11-22T00:36:56;10;;;9;;
55021;SDS011;68328;35.990;-86.756;2023-11-22T00:39:22;12;;;11;;
55021;SDS011;68328;35.990;-86.756;2023-11-22T00:41:47;10;;;10;;
55021;SDS011;68328;35.990;-86.756;2023-11-22T00:44:13;8;;;8;;
55021;SDS011;68328;35.990;-86.756;2023-11-22T00:46:38;11;;;10;;
55021;SDS011;68328;35.990;-86.756;2023-11-22T00:49:05;10;;;10;;
55021;SDS011;68328;35.990;-86.756;2023-11-22T00:51:29;12;;;12;;
55021;SDS011;68328;35.990;-86.756;2023-11-22T00:53:55;10;;;10;;
55021;SDS011;68328;35.990;-86.756;2023-11-22T00:56:20;9;;;9;;
55021;SDS011;68328;35.990;-86.756;2023-11-22T00:58:45;9;;;9;;
55021;SDS011;68328;35.990;-86.756;2023-11-22T01:01:12;6;;;6;;
55021;SDS011;68328;35.990;-86.756;2023-11-22T01:03:37;14;;;13;;
55021;SDS011;68328;35.990;-86.756;2023-11-22T01:06:02;9;;;9;;
55021;SDS011;68328;35.990;-86.756;2023-11-22T01:08:28;8;;;8;;
55021;SDS011;68328;35.990;-86.756;2023-11-22T01:10:54;15;;;14;;
55021;SDS011;68328;35.990;-86.756;2023-11-22T01:13:20;8;;;8;;
55021;SDS011;68328;35.990;-86.756;2023-11-22T01:15:44;9;;;9;;
55021;SDS011;68328;35.990;-86.756;2023-11-22T01:18:10;10;;;9;;
55021;SDS011;68328;35.990;-86.756;2023-11-22T01:20:36;12;;;12;;
55021;SDS011;68328;35.990;-86.756;2023-11-22T01:23:00;10;;;10;;
55021;SDS011;68328;35.990;-86.756;2023-11-22T01:25:26;15;;;12;;
55021;SDS011;68328;35.990;-86.756;2023-11-22T01:27:52;14;;;12;;
55021;SDS011;68328;35.990;-86.756;2023-11-22T01:30:18;13;;;12;;
55021;SDS011;68328;35.990;-86.756;2023-11-22T01:32:45;14;;;13;;
55021;SDS011;68328;35.990;-86.756;2023-11-22T01:35:10;11;;;11;;
55021;SDS011;68328;35.990;-86.756;2023-11-22T01:37:35;13;;;13;;
55021;SDS011;68328;35.990;-86.756;2023-11-22T01:40:02;10;;;10;;
55021;SDS011;68328;35.990;-86.756;2023-11-22T01:42:27;16;;;16;;
55021;SDS011;68328;35.990;-86.756;2023-11-22T01:44:51;17;;;16;;
55021;SDS011;68328;35.990;-86.756;2023-11-22T01:47:17;17;;;16;;
55021;SDS011;68328;35.990;-86.756;2023-11-22T01:49:42;15;;;14;;
55021;SDS011;68328;35.990;-86.756;2023-11-22T01:52:07;16;;;14;;
55021;SDS011;68328;35.990;-86.756;2023-11-22T01:54:33;14;;;14;;
55021;SDS011;68328;35.990;-86.756;2023-11-22T01:56:58;17;;;17;;
55021;SDS011;68328;35.990;-86.756;2023-11-22T01:59:23;17;;;17;;
55021;SDS011;68328;35.990;-86.756;2023-11-22T02:01:48;13;;;13;;
55021;SDS011;68328;35.990;-86.756;2023-11-22T02:04:14;16;;;15;;
55021;SDS011;68328;35.990;-86.756;2023-11-22T02:06:40;14;;;14;;
55021;SDS011;68328;35.990;-86.756;2023-11-22T02:09:05;22;;;20;;
55021;SDS011;68328;35.990;-86.756;2023-11-22T02:11:30;17;;;15;;
55021;SDS011;68328;35.990;-86.756;2023-11-22T02:13:56;17;;;17;;
55021;SDS011;68328;35.990;-86.756;2023-11-22T02:16:22;15;;;13;;
55021;SDS011;68328;35.990;-86.756;2023-11-22T02:18:47;18;;;17;;
55021;SDS011;68328;35.990;-86.756;2023-11-22T02:21:12;18;;;18;;
55021;SDS011;68328;35.990;-86.756;2023-11-22T02:23:37;17;;;17;;
55021;SDS011;68328;35.990;-86.756;2023-11-22T02:26:03;16;;;16;;
55021;SDS011;68328;35.990;-86.756;2023-11-22T02:28:28;21;;;20;;
55021;SDS011;68328;35.990;-86.756;2023-11-22T02:30:53;21;;;21;;
55021;SDS011;68328;35.990;-86.756;2023-11-22T02:33:20;17;;;15;;
55021;SDS011;68328;35.990;-86.756;2023-11-22T02:35:45;16;;;14;;
55021;SDS011;68328;35.990;-86.756;2023-11-22T02:38:10;16;;;15;;
55021;SDS011;68328;35.990;-86.756;2023-11-22T02:40:35;20;;;20;;
55021;SDS011;68328;35.990;-86.756;2023-11-22T02:43:01;15;;;15;;
55021;SDS011;68328;35.990;-86.756;2023-11-22T02:45:26;14;;;14;;
55021;SDS011;68328;35.990;-86.756;2023-11-22T02:47:51;16;;;14;;
55021;SDS011;68328;35.990;-86.756;2023-11-22T02:50:16;15;;;15;;
55021;SDS011;68328;35.990;-86.756;2023-11-22T02:52:43;14;;;12;;
55021;SDS011;68328;35.990;-86.756;2023-11-22T02:55:08;19;;;19;;
55021;SDS011;68328;35.990;-86.756;2023-11-22T02:57:32;14;;;14;;
55021;SDS011;68328;35.990;-86.756;2023-11-22T02:59:59;12;;;12;;
55021;SDS011;68328;35.990;-86.756;2023-11-22T03:02:24;13;;;13;;
55021;SDS011;68328;35.990;-86.756;2023-11-22T03:04:49;13;;;11;;
55021;SDS011;68328;35.990;-86.756;2023-11-22T03:07:13;10;;;10;;
55021;SDS011;68328;35.990;-86.756;2023-11-22T03:09:39;13;;;13;;
55021;SDS011;68328;35.990;-86.756;2023-11-22T03:12:05;14;;;14;;
55021;SDS011;68328;35.990;-86.756;2023-11-22T03:14:29;11;;;11;;
55021;SDS011;68328;35.990;-86.756;2023-11-22T03:16:55;13;;;10;;
55021;SDS011;68328;35.990;-86.756;2023-11-22T03:19:20;13;;;13;;
55021;SDS011;68328;35.990;-86.756;2023-11-22T03:21:46;12;;;11;;
55021;SDS011;68328;35.990;-86.756;2023-11-22T03:24:10;14;;;13;;
55021;SDS011;68328;35.990;-86.756;2023-11-22T03:26:36;10;;;9;;
55021;SDS011;68328;35.990;-86.756;2023-11-22T03:29:01;13;;;13;;
55021;SDS011;68328;35.990;-86.756;2023-11-22T03:31:26;14;;;13;;
55021;SDS011;68328;35.990;-86.756;2023-11-22T03:33:52;17;;;16;;
55021;SDS011;68328;35.990;-86.756;2023-11-22T03:36:17;12;;;11;;
55021;SDS011;68328;35.990;-86.756;2023-11-22T03:38:42;12;;;11;;
55021;SDS011;68328;35.990;-86.756;2023-11-22T03:41:07;11;;;9;;
55021;SDS011;68328;35.990;-86.756;2023-11-22T03:43:34;15;;;12;;
55021;SDS011;68328;35.990;-86.756;2023-11-22T03:45:59;13;;;13;;
55021;SDS011;68328;35.990;-86.756;2023-11-22T03:48:24;11;;;11;;
55021;SDS011;68328;35.990;-86.756;2023-11-22T03:50:50;12;;;11;;
55021;SDS011;68328;35.990;-86.756;2023-11-22T03:53:16;15;;;14;;
55021;SDS011;68328;35.990;-86.756;2023-11-22T03:55:40;13;;;10;;
55021;SDS011;68328;35.990;-86.756;2023-11-22T03:58:06;9;;;9;;
55021;SDS011;68328;35.990;-86.756;2023-11-22T04:00:32;18;;;18;;
55021;SDS011;68328;35.990;-86.756;2023-11-22T04:02:57;13;;;12;;
55021;SDS011;68328;35.990;-86.756;2023-11-22T04:05:22;14;;;14;;
55021;SDS011;68328;35.990;-86.756;2023-11-22T04:07:48;15;;;13;;
55021;SDS011;68328;35.990;-86.756;2023-11-22T04:10:13;10;;;9;;
55021;SDS011;68328;35.990;-86.756;2023-11-22T04:12:39;15;;;14;;
55021;SDS011;68328;35.990;-86.756;2023-11-22T04:15:04;14;;;13;;
55021;SDS011;68328;35.990;-86.756;2023-11-22T04:17:29;20;;;16;;
55021;SDS011;68328;35.990;-86.756;2023-11-22T04:19:54;15;;;15;;
55021;SDS011;68328;35.990;-86.756;2023-11-22T04:22:20;12;;;12;;
55021;SDS011;68328;35.990;-86.756;2023-11-22T04:24:46;15;;;15;;
55021;SDS011;68328;35.990;-86.756;2023-11-22T04:27:10;14;;;14;;
55021;SDS011;68328;35.990;-86.756;2023-11-22T04:29:37;20;;;18;;
55021;SDS011;68328;35.990;-86.756;2023-11-22T04:32:03;17;;;17;;
55021;SDS011;68328;35.990;-86.756;2023-11-22T04:34:28;16;;;14;;
55021;SDS011;68328;35.990;-86.756;2023-11-22T04:36:52;16;;;14;;
55021;SDS011;68328;35.990;-86.756;2023-11-22T04:39:19;14;;;14;;
55021;SDS011;68328;35.990;-86.756;2023-11-22T04:41:42;17;;;15;;
55021;SDS011;68328;35.990;-86.756;2023-11-22T04:44:07;19;;;15;;
55021;SDS011;68328;35.990;-86.756;2023-11-22T04:46:34;14;;;13;;
55021;SDS011;68328;35.990;-86.756;2023-11-22T04:48:58;8;;;8;;
55021;SDS011;68328;35.990;-86.756;2023-11-22T04:51:24;12;;;12;;
55021;SDS011;68328;35.990;-86.756;2023-11-22T04:53:49;12;;;12;;
55021;SDS011;68328;35.990;-86.756;2023-11-22T04:56:15;16;;;13;;
55021;SDS011;68328;35.990;-86.756;2023-11-22T04:58:40;12;;;12;;
55021;SDS011;68328;35.990;-86.756;2023-11-22T05:01:05;13;;;13;;
55021;SDS011;68328;35.990;-86.756;2023-11-22T05:03:31;16;;;16;;
55021;SDS011;68328;35.990;-86.756;2023-11-22T05:05:56;13;;;13;;
55021;SDS011;68328;35.990;-86.756;2023-11-22T05:08:22;11;;;10;;
55021;SDS011;68328;35.990;-86.756;2023-11-22T05:10:47;13;;;13;;
55021;SDS011;68328;35.990;-86.756;2023-11-22T05:13:12;13;;;13;;
55021;SDS011;68328;35.990;-86.756;2023-11-22T05:15:38;14;;;12;;
55021;SDS011;68328;35.990;-86.756;2023-11-22T05:18:03;13;;;13;;
55021;SDS011;68328;35.990;-86.756;2023-11-22T05:20:29;18;;;17;;
55021;SDS011;68328;35.990;-86.756;2023-11-22T05:22:55;12;;;11;;
55021;SDS011;68328;35.990;-86.756;2023-11-22T05:25:20;11;;;9;;
55021;SDS011;68328;35.990;-86.756;2023-11-22T05:27:46;9;;;9;;
55021;SDS011;68328;35.990;-86.756;2023-11-22T05:30:11;12;;;11;;
55021;SDS011;68328;35.990;-86.756;2023-11-22T05:32:36;9;;;9;;
55021;SDS011;68328;35.990;-86.756;2023-11-22T05:35:03;10;;;9;;
55021;SDS011;68328;35.990;-86.756;2023-11-22T05:37:27;12;;;12;;
55021;SDS011;68328;35.990;-86.756;2023-11-22T05:39:53;11;;;11;;
55021;SDS011;68328;35.990;-86.756;2023-11-22T05:42:18;10;;;10;;
55021;SDS011;68328;35.990;-86.756;2023-11-22T05:44:44;16;;;14;;
55021;SDS011;68328;35.990;-86.756;2023-11-22T05:47:09;11;;;11;;
55021;SDS011;68328;35.990;-86.756;2023-11-22T05:49:34;9;;;8;;
55021;SDS011;68328;35.990;-86.756;2023-11-22T05:52:00;12;;;12;;
55021;SDS011;68328;35.990;-86.756;2023-11-22T05:54:25;13;;;13;;
55021;SDS011;68328;35.990;-86.756;2023-11-22T05:56:50;15;;;12;;
55021;SDS011;68328;35.990;-86.756;2023-11-22T05:59:15;11;;;11;;
55021;SDS011;68328;35.990;-86.756;2023-11-22T06:01:41;12;;;12;;
55021;SDS011;68328;35.990;-86.756;2023-11-22T06:04:07;16;;;14;;
55021;SDS011;68328;35.990;-86.756;2023-11-22T06:06:32;12;;;10;;
55021;SDS011;68328;35.990;-86.756;2023-11-22T06:08:57;16;;;14;;
55021;SDS011;68328;35.990;-86.756;2023-11-22T06:11:22;10;;;10;;
55021;SDS011;68328;35.990;-86.756;2023-11-22T06:13:48;13;;;12;;
55021;SDS011;68328;35.990;-86.756;2023-11-22T06:16:14;11;;;11;;
55021;SDS011;68328;35.990;-86.756;2023-11-22T06:18:38;13;;;13;;
55021;SDS011;68328;35.990;-86.756;2023-11-22T06:21:04;15;;;14;;
55021;SDS011;68328;35.990;-86.756;2023-11-22T06:23:29;18;;;17;;
55021;SDS011;68328;35.990;-86.756;2023-11-22T06:25:54;15;;;13;;
55021;SDS011;68328;35.990;-86.756;2023-11-22T06:28:20;14;;;14;;
55021;SDS011;68328;35.990;-86.756;2023-11-22T06:30:45;22;;;20;;
55021;SDS011;68328;35.990;-86.756;2023-11-22T06:33:10;20;;;20;;
55021;SDS011;68328;35.990;-86.756;2023-11-22T06:35:35;15;;;15;;
55021;SDS011;68328;35.990;-86.756;2023-11-22T06:38:01;15;;;13;;
55021;SDS011;68328;35.990;-86.756;2023-11-22T06:40:27;17;;;16;;
55021;SDS011;68328;35.990;-86.756;2023-11-22T06:42:52;16;;;16;;
55021;SDS011;68328;35.990;-86.756;2023-11-22T06:45:18;19;;;14;;
55021;SDS011;68328;35.990;-86.756;2023-11-22T06:47:44;15;;;15;;
55021;SDS011;68328;35.990;-86.756;2023-11-22T06:50:09;14;;;14;;
55021;SDS011;68328;35.990;-86.756;2023-11-22T06:52:35;16;;;16;;
55021;SDS011;68328;35.990;-86.756;2023-11-22T06:55:00;18;;;16;;
55021;SDS011;68328;35.990;-86.756;2023-11-22T06:57:25;17;;;16;;
55021;SDS011;68328;35.990;-86.756;2023-11-22T06:59:50;16;;;16;;
55021;SDS011;68328;35.990;-86.756;2023-11-22T07:02:15;15;;;14;;
55021;SDS011;68328;35.990;-86.756;2023-11-22T07:04:42;12;;;12;;
55021;SDS011;68328;35.990;-86.756;2023-11-22T07:07:07;16;;;16;;
55021;SDS011;68328;35.990;-86.756;2023-11-22T07:09:32;18;;;14;;
55021;SDS011;68328;35.990;-86.756;2023-11-22T07:11:58;19;;;19;;
55021;SDS011;68328;35.990;-86.756;2023-11-22T07:14:23;15;;;14;;
55021;SDS011;68328;35.990;-86.756;2023-11-22T07:16:49;18;;;16;;
55021;SDS011;68328;35.990;-86.756;2023-11-22T07:19:13;13;;;12;;
55021;SDS011;68328;35.990;-86.756;2023-11-22T07:21:39;18;;;18;;
55021;SDS011;68328;35.990;-86.756;2023-11-22T07:24:05;16;;;16;;
55021;SDS011;68328;35.990;-86.756;2023-11-22T07:26:30;16;;;16;;
55021;SDS011;68328;35.990;-86.756;2023-11-22T07:28:56;16;;;14;;
55021;SDS011;68328;35.990;-86.756;2023-11-22T07:31:20;17;;;16;;
55021;SDS011;68328;35.990;-86.756;2023-11-22T07:33:46;19;;;16;;
55021;SDS011;68328;35.990;-86.756;2023-11-22T07:36:11;13;;;11;;
55021;SDS011;68328;35.990;-86.756;2023-11-22T07:38:36;16;;;14;;
55021;SDS011;68328;35.990;-86.756;2023-11-22T07:41:01;12;;;12;;
55021;SDS011;68328;35.990;-86.756;2023-11-22T07:43:27;11;;;11;;
55021;SDS011;68328;35.990;-86.756;2023-11-22T07:45:54;11;;;10;;
55021;SDS011;68328;35.990;-86.756;2023-11-22T07:48:19;11;;;9;;
55021;SDS011;68328;35.990;-86.756;2023-11-22T07:50:44;9;;;9;;
55021;SDS011;68328;35.990;-86.756;2023-11-22T07:53:10;12;;;11;;
55021;SDS011;68328;35.990;-86.756;2023-11-22T07:55:35;10;;;8;;
55021;SDS011;68328;35.990;-86.756;2023-11-22T07:58:01;10;;;7;;
55021;SDS011;68328;35.990;-86.756;2023-11-22T08:00:26;10;;;10;;
55021;SDS011;68328;35.990;-86.756;2023-11-22T08:02:52;13;;;11;;
55021;SDS011;68328;35.990;-86.756;2023-11-22T08:05:17;7;;;7;;
55021;SDS011;68328;35.990;-86.756;2023-11-22T08:07:43;7;;;7;;
55021;SDS011;68328;35.990;-86.756;2023-11-22T08:10:10;6;;;6;;
55021;SDS011;68328;35.990;-86.756;2023-11-22T08:12:34;11;;;10;;
55021;SDS011;68328;35.990;-86.756;2023-11-22T08:14:59;12;;;11;;
55021;SDS011;68328;35.990;-86.756;2023-11-22T08:17:25;10;;;10;;
55021;SDS011;68328;35.990;-86.756;2023-11-22T08:19:50;7;;;7;;
55021;SDS011;68328;35.990;-86.756;2023-11-22T08:22:16;9;;;9;;
55021;SDS011;68328;35.990;-86.756;2023-11-22T08:24:41;7;;;6;;
55021;SDS011;68328;35.990;-86.756;2023-11-22T08:27:06;9;;;7;;
55021;SDS011;68328;35.990;-86.756;2023-11-22T08:29:31;9;;;8;;
55021;SDS011;68328;35.990;-86.756;2023-11-22T08:31:57;9;;;9;;
55021;SDS011;68328;35.990;-86.756;2023-11-22T08:34:23;8;;;8;;
55021;SDS011;68328;35.990;-86.756;2023-11-22T08:36:49;8;;;7;;
55021;SDS011;68328;35.990;-86.756;2023-11-22T08:39:13;8;;;7;;
55021;SDS011;68328;35.990;-86.756;2023-11-22T08:41:39;10;;;8;;
55021;SDS011;68328;35.990;-86.756;2023-11-22T08:44:05;7;;;6;;
55021;SDS011;68328;35.990;-86.756;2023-11-22T08:46:30;11;;;8;;
55021;SDS011;68328;35.990;-86.756;2023-11-22T08:48:56;8;;;8;;
55021;SDS011;68328;35.990;-86.756;2023-11-22T08:51:22;7;;;7;;
55021;SDS011;68328;35.990;-86.756;2023-11-22T08:53:47;10;;;8;;
55021;SDS011;68328;35.990;-86.756;2023-11-22T08:56:13;7;;;7;;
55021;SDS011;68328;35.990;-86.756;2023-11-22T08:58:38;8;;;8;;
55021;SDS011;68328;35.990;-86.756;2023-11-22T09:01:03;6;;;6;;
55021;SDS011;68328;35.990;-86.756;2023-11-22T09:03:29;11;;;11;;
55021;SDS011;68328;35.990;-86.756;2023-11-22T09:05:54;6;;;6;;
55021;SDS011;68328;35.990;-86.756;2023-11-22T09:08:20;11;;;11;;
55021;SDS011;68328;35.990;-86.756;2023-11-22T09:10:45;8;;;8;;
55021;SDS011;68328;35.990;-86.756;2023-11-22T09:13:11;9;;;8;;
55021;SDS011;68328;35.990;-86.756;2023-11-22T09:15:36;6;;;6;;
55021;SDS011;68328;35.990;-86.756;2023-11-22T09:18:01;7;;;5;;
55021;SDS011;68328;35.990;-86.756;2023-11-22T09:20:26;8;;;8;;
55021;SDS011;68328;35.990;-86.756;2023-11-22T09:22:52;9;;;8;;
55021;SDS011;68328;35.990;-86.756;2023-11-22T09:25:17;11;;;10;;
55021;SDS011;68328;35.990;-86.756;2023-11-22T09:27:42;11;;;8;;
55021;SDS011;68328;35.990;-86.756;2023-11-22T09:30:08;6;;;6;;
55021;SDS011;68328;35.990;-86.756;2023-11-22T09:32:34;10;;;9;;
55021;SDS011;68328;35.990;-86.756;2023-11-22T09:34:58;6;;;6;;
55021;SDS011;68328;35.990;-86.756;2023-11-22T09:37:23;8;;;8;;
55021;SDS011;68328;35.990;-86.756;2023-11-22T09:39:48;7;;;7;;
55021;SDS011;68328;35.990;-86.756;2023-11-22T09:42:14;9;;;9;;
55021;SDS011;68328;35.990;-86.756;2023-11-22T09:44:39;8;;;8;;
55021;SDS011;68328;35.990;-86.756;2023-11-22T09:47:04;8;;;6;;
55021;SDS011;68328;35.990;-86.756;2023-11-22T09:49:30;9;;;7;;
55021;SDS011;68328;35.990;-86.756;2023-11-22T09:51:55;8;;;6;;
55021;SDS011;68328;35.990;-86.756;2023-11-22T09:54:20;8;;;7;;
55021;SDS011;68328;35.990;-86.756;2023-11-22T09:56:46;6;;;6;;
55021;SDS011;68328;35.990;-86.756;2023-11-22T09:59:11;7;;;7;;
55021;SDS011;68328;35.990;-86.756;2023-11-22T10:01:37;9;;;8;;
55021;SDS011;68328;35.990;-86.756;2023-11-22T10:04:02;11;;;9;;
55021;SDS011;68328;35.990;-86.756;2023-11-22T10:06:27;10;;;9;;
55021;SDS011;68328;35.990;-86.756;2023-11-22T10:08:53;7;;;7;;
55021;SDS011;68328;35.990;-86.756;2023-11-22T10:11:18;8;;;8;;
55021;SDS011;68328;35.990;-86.756;2023-11-22T10:13:45;12;;;12;;
55021;SDS011;68328;35.990;-86.756;2023-11-22T10:16:10;11;;;10;;
55021;SDS011;68328;35.990;-86.756;2023-11-22T10:18:38;14;;;14;;
55021;SDS011;68328;35.990;-86.756;2023-11-22T10:21:00;13;;;12;;
55021;SDS011;68328;35.990;-86.756;2023-11-22T10:23:25;12;;;9;;
55021;SDS011;68328;35.990;-86.756;2023-11-22T10:25:52;7;;;7;;
55021;SDS011;68328;35.990;-86.756;2023-11-22T10:28:17;11;;;10;;
55021;SDS011;68328;35.990;-86.756;2023-11-22T10:30:43;13;;;13;;
55021;SDS011;68328;35.990;-86.756;2023-11-22T10:35:33;9;;;9;;
55021;SDS011;68328;35.990;-86.756;2023-11-22T10:37:59;9;;;9;;
55021;SDS011;68328;35.990;-86.756;2023-11-22T10:40:24;11;;;11;;
55021;SDS011;68328;35.990;-86.756;2023-11-22T10:42:50;7;;;7;;
55021;SDS011;68328;35.990;-86.756;2023-11-22T10:45:16;12;;;10;;
55021;SDS011;68328;35.990;-86.756;2023-11-22T10:47:42;12;;;10;;
55021;SDS011;68328;35.990;-86.756;2023-11-22T10:50:08;6;;;6;;
55021;SDS011;68328;35.990;-86.756;2023-11-22T10:52:32;9;;;8;;
55021;SDS011;68328;35.990;-86.756;2023-11-22T10:55:00;10;;;8;;
55021;SDS011;68328;35.990;-86.756;2023-11-22T10:57:23;13;;;12;;
55021;SDS011;68328;35.990;-86.756;2023-11-22T10:59:51;11;;;11;;
55021;SDS011;68328;35.990;-86.756;2023-11-22T11:02:14;16;;;14;;
55021;SDS011;68328;35.990;-86.756;2023-11-22T11:04:42;8;;;7;;
55021;SDS011;68328;35.990;-86.756;2023-11-22T11:07:05;14;;;13;;
55021;SDS011;68328;35.990;-86.756;2023-11-22T11:09:31;11;;;11;;
55021;SDS011;68328;35.990;-86.756;2023-11-22T11:11:56;11;;;11;;
55021;SDS011;68328;35.990;-86.756;2023-11-22T11:14:22;9;;;9;;
55021;SDS011;68328;35.990;-86.756;2023-11-22T11:16:47;12;;;10;;
55021;SDS011;68328;35.990;-86.756;2023-11-22T11:19:12;11;;;10;;
55021;SDS011;68328;35.990;-86.756;2023-11-22T11:21:37;10;;;9;;
55021;SDS011;68328;35.990;-86.756;2023-11-22T11:24:03;9;;;8;;
55021;SDS011;68328;35.990;-86.756;2023-11-22T11:26:28;14;;;14;;
55021;SDS011;68328;35.990;-86.756;2023-11-22T11:28:53;14;;;14;;
55021;SDS011;68328;35.990;-86.756;2023-11-22T11:31:21;9;;;9;;
55021;SDS011;68328;35.990;-86.756;2023-11-22T11:36:10;11;;;10;;
55021;SDS011;68328;35.990;-86.756;2023-11-22T11:38:35;16;;;16;;
55021;SDS011;68328;35.990;-86.756;2023-11-22T11:41:08;11;;;11;;
55021;SDS011;68328;35.990;-86.756;2023-11-22T11:45:51;11;;;10;;
55021;SDS011;68328;35.990;-86.756;2023-11-22T11:48:16;11;;;11;;
55021;SDS011;68328;35.990;-86.756;2023-11-22T11:50:43;13;;;13;;
55021;SDS011;68328;35.990;-86.756;2023-11-22T11:53:07;11;;;11;;
55021;SDS011;68328;35.990;-86.756;2023-11-22T11:55:32;15;;;14;;
55021;SDS011;68328;35.990;-86.756;2023-11-22T11:58:03;18;;;17;;
55021;SDS011;68328;35.990;-86.756;2023-11-22T12:00:23;15;;;14;;
55021;SDS011;68328;35.990;-86.756;2023-11-22T12:02:49;11;;;11;;
55021;SDS011;68328;35.990;-86.756;2023-11-22T12:05:15;13;;;12;;
55021;SDS011;68328;35.990;-86.756;2023-11-22T12:07:39;12;;;11;;
55021;SDS011;68328;35.990;-86.756;2023-11-22T12:10:05;14;;;12;;
55021;SDS011;68328;35.990;-86.756;2023-11-22T12:12:30;17;;;16;;
55021;SDS011;68328;35.990;-86.756;2023-11-22T12:14:56;11;;;10;;
55021;SDS011;68328;35.990;-86.756;2023-11-22T12:17:22;12;;;12;;
55021;SDS011;68328;35.990;-86.756;2023-11-22T12:19:46;11;;;11;;
55021;SDS011;68328;35.990;-86.756;2023-11-22T12:22:12;13;;;12;;
55021;SDS011;68328;35.990;-86.756;2023-11-22T12:24:39;9;;;9;;
55021;SDS011;68328;35.990;-86.756;2023-11-22T12:27:04;9;;;8;;
55021;SDS011;68328;35.990;-86.756;2023-11-22T12:29:30;11;;;8;;
55021;SDS011;68328;35.990;-86.756;2023-11-22T12:31:54;9;;;8;;
55021;SDS011;68328;35.990;-86.756;2023-11-22T12:34:21;13;;;11;;
55021;SDS011;68328;35.990;-86.756;2023-11-22T12:36:46;11;;;9;;
55021;SDS011;68328;35.990;-86.756;2023-11-22T12:39:11;7;;;7;;
55021;SDS011;68328;35.990;-86.756;2023-11-22T12:41:41;9;;;7;;
55021;SDS011;68328;35.990;-86.756;2023-11-22T12:44:03;8;;;8;;
55021;SDS011;68328;35.990;-86.756;2023-11-22T12:46:27;11;;;8;;
55021;SDS011;68328;35.990;-86.756;2023-11-22T12:51:17;10;;;8;;
55021;SDS011;68328;35.990;-86.756;2023-11-22T12:53:45;9;;;7;;
55021;SDS011;68328;35.990;-86.756;2023-11-22T12:56:09;14;;;14;;
55021;SDS011;68328;35.990;-86.756;2023-11-22T12:58:34;9;;;9;;
55021;SDS011;68328;35.990;-86.756;2023-11-22T13:01:00;9;;;8;;
55021;SDS011;68328;35.990;-86.756;2023-11-22T13:03:25;12;;;12;;
55021;SDS011;68328;35.990;-86.756;2023-11-22T13:05:52;9;;;9;;
55021;SDS011;68328;35.990;-86.756;2023-11-22T13:08:17;11;;;10;;
55021;SDS011;68328;35.990;-86.756;2023-11-22T13:10:43;9;;;9;;
55021;SDS011;68328;35.990;-86.756;2023-11-22T13:13:08;12;;;11;;
55021;SDS011;68328;35.990;-86.756;2023-11-22T13:15:35;6;;;6;;
55021;SDS011;68328;35.990;-86.756;2023-11-22T13:18:00;9;;;8;;
55021;SDS011;68328;35.990;-86.756;2023-11-22T13:20:24;11;;;11;;
55021;SDS011;68328;35.990;-86.756;2023-11-22T13:22:49;9;;;9;;
55021;SDS011;68328;35.990;-86.756;2023-11-22T13:25:15;10;;;10;;
55021;SDS011;68328;35.990;-86.756;2023-11-22T13:27:41;13;;;13;;
55021;SDS011;68328;35.990;-86.756;2023-11-22T13:30:06;11;;;11;;
55021;SDS011;68328;35.990;-86.756;2023-11-22T13:32:30;11;;;10;;
55021;SDS011;68328;35.990;-86.756;2023-11-22T13:34:57;11;;;10;;
55021;SDS011;68328;35.990;-86.756;2023-11-22T13:37:22;11;;;11;;
55021;SDS011;68328;35.990;-86.756;2023-11-22T13:39:46;10;;;10;;
55021;SDS011;68328;35.990;-86.756;2023-11-22T13:42:12;10;;;9;;
55021;SDS011;68328;35.990;-86.756;2023-11-22T13:44:37;12;;;11;;
55021;SDS011;68328;35.990;-86.756;2023-11-22T13:47:02;14;;;13;;
55021;SDS011;68328;35.990;-86.756;2023-11-22T13:49:27;10;;;10;;
55021;SDS011;68328;35.990;-86.756;2023-11-22T13:51:53;12;;;12;;
55021;SDS011;68328;35.990;-86.756;2023-11-22T13:54:19;10;;;10;;
55021;SDS011;68328;35.990;-86.756;2023-11-22T13:56:44;10;;;8;;
55021;SDS011;68328;35.990;-86.756;2023-11-22T13:59:10;9;;;9;;
55021;SDS011;68328;35.990;-86.756;2023-11-22T14:01:35;11;;;11;;
55021;SDS011;68328;35.990;-86.756;2023-11-22T14:04:01;11;;;11;;
55021;SDS011;68328;35.990;-86.756;2023-11-22T14:06:26;11;;;11;;
55021;SDS011;68328;35.990;-86.756;2023-11-22T14:08:51;13;;;12;;
55021;SDS011;68328;35.990;-86.756;2023-11-22T14:11:17;9;;;9;;
55021;SDS011;68328;35.990;-86.756;2023-11-22T14:13:43;12;;;11;;
55021;SDS011;68328;35.990;-86.756;2023-11-22T14:16:09;7;;;7;;
55021;SDS011;68328;35.990;-86.756;2023-11-22T14:18:35;11;;;10;;
55021;SDS011;68328;35.990;-86.756;2023-11-22T14:21:00;7;;;7;;
55021;SDS011;68328;35.990;-86.756;2023-11-22T14:23:26;11;;;11;;
55021;SDS011;68328;35.990;-86.756;2023-11-22T14:25:52;9;;;7;;
55021;SDS011;68328;35.990;-86.756;2023-11-22T14:28:16;9;;;9;;
55021;SDS011;68328;35.990;-86.756;2023-11-22T14:30:41;10;;;9;;
55021;SDS011;68328;35.990;-86.756;2023-11-22T14:33:07;8;;;7;;
55021;SDS011;68328;35.990;-86.756;2023-11-22T14:35:33;13;;;9;;
55021;SDS011;68328;35.990;-86.756;2023-11-22T14:37:58;8;;;8;;
55021;SDS011;68328;35.990;-86.756;2023-11-22T14:40:22;11;;;11;;
55021;SDS011;68328;35.990;-86.756;2023-11-22T14:42:48;13;;;12;;
55021;SDS011;68328;35.990;-86.756;2023-11-22T14:45:14;12;;;12;;
55021;SDS011;68328;35.990;-86.756;2023-11-22T14:47:39;19;;;18;;
55021;SDS011;68328;35.990;-86.756;2023-11-22T14:50:05;11;;;10;;
55021;SDS011;68328;35.990;-86.756;2023-11-22T14:52:29;11;;;11;;
55021;SDS011;68328;35.990;-86.756;2023-11-22T14:54:54;10;;;9;;
55021;SDS011;68328;35.990;-86.756;2023-11-22T14:57:20;11;;;11;;
55021;SDS011;68328;35.990;-86.756;2023-11-22T14:59:45;13;;;13;;
55021;SDS011;68328;35.990;-86.756;2023-11-22T15:02:10;15;;;13;;
55021;SDS011;68328;35.990;-86.756;2023-11-22T15:04:36;16;;;16;;
55021;SDS011;68328;35.990;-86.756;2023-11-22T15:07:01;15;;;14;;
55021;SDS011;68328;35.990;-86.756;2023-11-22T15:09:28;10;;;10;;
55021;SDS011;68328;35.990;-86.756;2023-11-22T15:11:52;19;;;18;;
55021;SDS011;68328;35.990;-86.756;2023-11-22T15:14:17;13;;;12;;
55021;SDS011;68328;35.990;-86.756;2023-11-22T15:16:44;16;;;14;;
55021;SDS011;68328;35.990;-86.756;2023-11-22T15:19:08;15;;;15;;